createdAt,value
2019-01-17T00:05:31.377Z,0.40
2019-01-17T00:10:55.748Z,0.40
2019-01-17T00:16:28.114Z,0.40
2019-01-17T00:21:58.145Z,0.40
2019-01-17T00:27:30.010Z,0.30
2019-01-17T00:33:06.546Z,0.30
2019-01-17T00:38:44.326Z,0.20
2019-01-17T00:44:23.862Z,0.20
2019-01-17T00:49:56.071Z,0.10
2019-01-17T00:55:32.546Z,0.10
2019-01-17T01:01:11.875Z,0.10
2019-01-17T01:06:50.044Z,0.00
2019-01-17T01:12:22.747Z,0.00
2019-01-17T01:18:02.498Z,0.10
2019-01-17T01:23:29.621Z,0.20
2019-01-17T01:29:02.678Z,0.30
2019-01-17T01:34:34.118Z,0.40
2019-01-17T01:40:07.180Z,0.60
2019-01-17T01:45:50.249Z,0.70
2019-01-17T01:51:22.325Z,0.90
2019-01-17T01:56:37.191Z,1.00
2019-01-17T02:01:51.312Z,1.20
2019-01-17T02:07:06.011Z,1.40
2019-01-17T02:12:20.665Z,1.60
2019-01-17T02:17:35.448Z,1.80
2019-01-17T02:22:50.342Z,1.90
2019-01-17T02:28:04.887Z,2.00
2019-01-17T02:33:22.952Z,2.20
2019-01-17T02:38:37.268Z,2.30
2019-01-17T02:43:53.990Z,2.50
2019-01-17T02:49:09.171Z,2.60
2019-01-17T02:54:23.780Z,2.80
2019-01-17T02:59:38.250Z,3.00
2019-01-17T03:04:52.912Z,3.20
2019-01-17T03:10:11.051Z,3.40
2019-01-17T03:15:25.696Z,3.60
2019-01-17T03:20:40.640Z,3.60
2019-01-17T03:25:55.450Z,3.70
2019-01-17T03:31:09.756Z,3.80
2019-01-17T03:36:24.549Z,3.90
2019-01-17T03:41:39.285Z,4.00
2019-01-17T03:46:54.075Z,4.10
2019-01-17T03:52:08.753Z,4.00
2019-01-17T03:57:23.500Z,4.00
2019-01-17T04:02:38.602Z,4.00
2019-01-17T04:07:52.991Z,4.10
2019-01-17T04:13:07.218Z,4.20
2019-01-17T04:18:21.768Z,4.20
2019-01-17T04:23:36.143Z,4.40
2019-01-17T04:28:51.804Z,4.50
2019-01-17T04:34:06.622Z,4.60
2019-01-17T04:39:21.641Z,4.70
2019-01-17T04:44:36.306Z,4.90
2019-01-17T04:49:50.756Z,5.10
2019-01-17T04:55:08.972Z,5.20
2019-01-17T05:00:33.420Z,5.30
2019-01-17T05:05:50.955Z,5.30
2019-01-17T05:11:05.546Z,5.40
2019-01-17T05:16:20.213Z,5.50
2019-01-17T05:21:37.315Z,5.40
2019-01-17T05:26:52.051Z,5.50
2019-01-17T05:32:06.296Z,5.40
2019-01-17T05:37:20.478Z,5.40
2019-01-17T05:42:34.890Z,5.40
2019-01-17T05:47:49.754Z,5.40
2019-01-17T05:53:04.250Z,5.40
2019-01-17T05:58:18.620Z,5.40
2019-01-17T06:03:35.873Z,5.30
2019-01-17T06:08:50.555Z,5.50
2019-01-17T06:14:05.234Z,5.60
2019-01-17T06:19:21.316Z,5.70
2019-01-17T06:24:35.944Z,5.70
2019-01-17T06:29:52.848Z,5.80
2019-01-17T06:35:07.931Z,5.80
2019-01-17T06:40:32.014Z,5.90
2019-01-17T06:45:49.918Z,6.00
2019-01-17T06:51:05.214Z,6.10
2019-01-17T06:56:23.925Z,6.20
2019-01-17T07:01:38.553Z,6.30
2019-01-17T07:06:54.062Z,6.40
2019-01-17T07:12:09.026Z,6.40
2019-01-17T07:17:24.036Z,6.40
2019-01-17T07:22:38.436Z,6.40
2019-01-17T07:27:53.118Z,6.40
2019-01-17T07:33:07.582Z,6.40
2019-01-17T07:38:22.257Z,6.30
2019-01-17T07:43:36.767Z,6.30
2019-01-17T07:49:26.843Z,6.20
2019-01-17T07:54:46.395Z,6.20
2019-01-17T08:00:00.784Z,6.10
2019-01-17T08:05:15.606Z,6.10
2019-01-17T08:10:30.156Z,6.10
2019-01-17T08:15:44.896Z,6.10
2019-01-17T08:20:59.686Z,6.20
2019-01-17T08:26:14.457Z,6.40
2019-01-17T08:31:28.984Z,6.50
2019-01-17T08:36:43.845Z,6.70
2019-01-17T08:41:58.593Z,6.80
2019-01-17T08:47:12.729Z,7.00
2019-01-17T08:52:27.367Z,7.10
2019-01-17T08:57:41.825Z,7.10
2019-01-17T09:02:56.411Z,7.20
2019-01-17T09:08:10.698Z,7.20
2019-01-17T09:13:25.272Z,7.20
2019-01-17T09:18:39.393Z,7.20
2019-01-17T09:23:53.742Z,7.30
2019-01-17T09:29:08.982Z,7.30
2019-01-17T09:34:23.380Z,7.20
2019-01-17T09:39:37.565Z,7.20
2019-01-17T09:44:52.111Z,7.10
2019-01-17T09:50:09.585Z,7.10
2019-01-17T09:55:24.077Z,6.90
2019-01-17T10:00:38.707Z,6.90
2019-01-17T10:05:53.175Z,6.80
2019-01-17T10:11:07.746Z,6.70
2019-01-17T10:16:34.136Z,6.60
2019-01-17T10:22:26.530Z,6.60
2019-01-17T10:28:16.379Z,6.60
2019-01-17T10:34:11.339Z,6.60
2019-01-17T10:40:05.161Z,6.60
2019-01-17T10:46:05.423Z,6.60
2019-01-17T10:51:40.665Z,6.70
2019-01-17T10:57:13.593Z,6.70
2019-01-17T11:02:59.206Z,6.70
2019-01-17T11:08:37.366Z,6.70
2019-01-17T11:14:11.571Z,6.80
2019-01-17T11:20:01.363Z,6.80
2019-01-17T11:25:40.850Z,6.80
2019-01-17T11:31:41.278Z,6.80
2019-01-17T11:37:51.678Z,6.90
2019-01-17T11:43:42.208Z,6.90
2019-01-17T11:49:24.959Z,6.90
2019-01-17T11:55:09.212Z,7.00
2019-01-17T12:00:52.468Z,6.90
2019-01-17T12:06:07.231Z,6.90
2019-01-17T12:11:23.302Z,6.90
2019-01-17T12:16:40.917Z,6.80
2019-01-17T12:21:55.578Z,6.80
2019-01-17T12:27:10.466Z,6.70
2019-01-17T12:32:26.171Z,6.80
2019-01-17T12:37:41.408Z,6.80
2019-01-17T12:42:56.082Z,6.70
2019-01-17T12:48:11.125Z,6.70
2019-01-17T12:53:26.029Z,6.60
2019-01-17T12:58:40.514Z,6.40
2019-01-17T13:03:55.295Z,6.20
2019-01-17T13:09:10.000Z,6.10
2019-01-17T13:14:24.396Z,6.00
2019-01-17T13:19:39.176Z,6.00
2019-01-17T13:24:53.839Z,6.00
2019-01-17T13:30:17.308Z,6.00
2019-01-17T13:35:31.926Z,6.00
2019-01-17T13:40:47.669Z,6.00
2019-01-17T13:46:02.085Z,6.00
2019-01-17T13:51:16.689Z,6.10
2019-01-17T13:56:31.461Z,6.00
2019-01-17T14:01:46.148Z,6.10
2019-01-17T14:07:00.820Z,6.10
2019-01-17T14:12:15.096Z,6.10
2019-01-17T14:17:29.679Z,6.10
2019-01-17T14:22:44.532Z,6.20
2019-01-17T14:27:58.842Z,6.20
2019-01-17T14:33:13.304Z,6.20
2019-01-17T14:38:27.799Z,6.20
2019-01-17T14:43:42.765Z,6.20
2019-01-17T14:49:00.413Z,6.10
2019-01-17T14:54:14.480Z,6.10
2019-01-17T14:59:29.166Z,6.10
2019-01-17T15:04:43.561Z,6.00
2019-01-17T15:09:59.497Z,6.20
2019-01-17T15:15:14.626Z,6.10
2019-01-17T15:20:29.581Z,6.10
2019-01-17T15:25:44.494Z,6.00
2019-01-17T15:30:59.220Z,5.90
2019-01-17T15:36:13.615Z,5.80
2019-01-17T15:41:29.432Z,5.70
2019-01-17T15:46:44.288Z,5.70
2019-01-17T15:51:58.829Z,5.70
2019-01-17T15:57:16.626Z,5.60
2019-01-17T16:02:31.016Z,5.50
2019-01-17T16:07:45.630Z,5.50
2019-01-17T16:13:00.302Z,5.40
2019-01-17T16:18:14.964Z,5.40
2019-01-17T16:23:29.392Z,5.30
2019-01-17T16:28:44.095Z,5.20
2019-01-17T16:33:58.690Z,5.20
2019-01-17T16:39:13.344Z,5.20
2019-01-17T16:44:29.991Z,5.30
2019-01-17T16:49:44.885Z,5.30
2019-01-17T16:55:02.846Z,5.30
2019-01-17T17:00:21.628Z,5.40
2019-01-17T17:05:36.980Z,5.40
2019-01-17T17:10:51.818Z,5.40
2019-01-17T17:16:07.006Z,5.30
2019-01-17T17:21:21.573Z,5.30
2019-01-17T17:26:36.147Z,5.20
2019-01-17T17:31:50.546Z,5.20
2019-01-17T17:37:05.017Z,5.20
2019-01-17T17:42:20.004Z,5.10
2019-01-17T17:47:34.612Z,5.10
2019-01-17T17:52:52.593Z,5.10
2019-01-17T17:58:07.416Z,5.10
2019-01-17T18:03:22.182Z,5.10
2019-01-17T18:08:36.991Z,5.10
2019-01-17T18:13:53.235Z,4.70
2019-01-17T18:19:08.333Z,4.10
2019-01-17T18:24:23.033Z,3.60
2019-01-17T18:29:38.704Z,3.50
2019-01-17T18:34:53.590Z,3.30
2019-01-17T18:40:10.848Z,3.20
2019-01-17T18:45:25.423Z,3.10
2019-01-17T18:50:40.089Z,3.00
2019-01-17T19:06:33.323Z,3.00
2019-01-17T19:11:47.730Z,2.90
2019-01-17T19:17:02.819Z,2.90
2019-01-17T19:22:26.238Z,2.80
2019-01-17T19:27:42.721Z,2.80
2019-01-17T19:32:57.415Z,2.80
2019-01-17T19:38:11.892Z,2.80
2019-01-17T19:43:27.346Z,2.70
2019-01-17T19:48:42.929Z,2.60
2019-01-17T19:53:58.205Z,2.70
2019-01-17T19:59:27.951Z,2.60
2019-01-17T20:04:45.911Z,2.60
2019-01-17T20:10:00.797Z,2.60
2019-01-17T20:15:15.664Z,2.60
2019-01-17T20:20:31.965Z,2.60
2019-01-17T20:25:47.074Z,2.60
2019-01-17T20:31:01.790Z,2.60
2019-01-17T20:36:16.855Z,2.60
2019-01-17T20:41:31.834Z,2.60
2019-01-17T20:46:47.298Z,2.60
2019-01-17T20:52:03.584Z,2.50
2019-01-17T20:57:18.600Z,2.50
2019-01-17T21:02:33.098Z,2.50
2019-01-17T21:07:48.444Z,2.50
2019-01-17T21:13:03.273Z,2.50
2019-01-17T21:18:17.879Z,2.50
2019-01-17T21:23:32.988Z,2.50
2019-01-17T21:28:49.183Z,2.50
2019-01-17T21:34:03.851Z,2.00
2019-01-17T21:39:18.753Z,1.80
2019-01-17T21:44:33.195Z,1.60
2019-01-17T21:49:49.762Z,1.60
2019-01-17T21:55:04.709Z,1.50
2019-01-17T22:00:21.226Z,1.50
2019-01-17T22:05:36.685Z,1.50
2019-01-17T22:10:51.195Z,1.40
2019-01-17T22:16:09.305Z,1.30
2019-01-17T22:21:23.571Z,1.20
2019-01-17T22:26:38.163Z,1.10
2019-01-17T22:31:52.543Z,1.10
2019-01-17T22:37:09.010Z,1.00
2019-01-17T22:42:23.287Z,1.00
2019-01-17T22:47:38.050Z,1.00
2019-01-17T22:52:52.771Z,1.10
2019-01-17T22:58:07.076Z,1.10
2019-01-17T23:03:24.274Z,1.00
2019-01-17T23:08:38.940Z,1.00
2019-01-17T23:13:53.355Z,0.90
2019-01-17T23:19:07.637Z,0.90
2019-01-17T23:24:22.411Z,0.90
2019-01-17T23:29:36.779Z,0.80
2019-01-17T23:34:51.481Z,0.80
2019-01-17T23:40:06.521Z,0.80
2019-01-17T23:45:21.221Z,0.80
2019-01-17T23:50:35.704Z,0.70
2019-01-17T23:55:50.498Z,0.70
